createdAt,value
2022-10-17T00:00:40.171Z,98663.63
2022-10-17T00:03:07.172Z,98664.44
2022-10-17T00:05:34.044Z,98655.16
2022-10-17T00:08:00.695Z,98657.66
2022-10-17T00:10:27.664Z,98657.03
2022-10-17T00:12:54.686Z,98659.34
2022-10-17T00:15:21.745Z,98660.81
2022-10-17T00:17:48.494Z,98667.25
2022-10-17T00:20:15.909Z,98663.94
2022-10-17T00:22:43.249Z,98663.78
2022-10-17T00:25:10.344Z,98664.00
2022-10-17T00:27:41.585Z,98669.59
2022-10-17T00:30:15.578Z,98665.28
2022-10-17T00:32:42.480Z,98662.97
2022-10-17T00:35:09.437Z,98661.34
2022-10-17T00:37:36.228Z,98661.34
2022-10-17T00:40:04.290Z,98656.41
2022-10-17T00:42:31.242Z,98655.59
2022-10-17T00:45:12.663Z,98658.47
2022-10-17T00:47:40.208Z,98658.47
2022-10-17T00:50:07.332Z,98664.06
2022-10-17T00:52:34.836Z,98661.16
2022-10-17T00:55:13.875Z,98664.88
2022-10-17T00:57:41.954Z,98659.94
2022-10-17T01:00:11.833Z,98663.69
2022-10-17T01:02:39.235Z,98662.25
2022-10-17T01:05:07.491Z,98664.34
2022-10-17T01:07:37.216Z,98666.41
2022-10-17T01:10:06.814Z,98668.28
2022-10-17T01:12:47.010Z,98666.41
2022-10-17T01:15:19.779Z,98664.53
2022-10-17T01:18:01.545Z,98665.38
2022-10-17T01:21:02.516Z,98666.19
2022-10-17T01:23:47.443Z,98662.47
2022-10-17T01:26:48.411Z,98665.38
2022-10-17T01:29:37.032Z,98679.03
2022-10-17T01:32:23.557Z,98673.66
2022-10-17T01:35:04.110Z,98678.19
2022-10-17T01:37:33.673Z,98681.28
2022-10-17T01:40:10.857Z,98686.41
2022-10-17T01:42:56.991Z,98681.03
2022-10-17T01:45:41.144Z,98680.81
2022-10-17T01:48:15.083Z,98683.06
2022-10-17T01:50:47.842Z,98691.75
2022-10-17T01:53:24.184Z,98693.81
2022-10-17T01:55:54.420Z,98695.50
2022-10-17T01:58:33.904Z,98697.13
2022-10-17T02:01:05.320Z,98699.00
2022-10-17T02:03:34.598Z,98699.56
2022-10-17T02:06:02.333Z,98695.03
2022-10-17T02:08:40.999Z,98698.34
2022-10-17T02:11:20.778Z,98709.69
2022-10-17T02:14:05.071Z,98703.72
2022-10-17T02:16:50.549Z,98707.63
2022-10-17T02:19:52.993Z,98711.59
2022-10-17T02:22:31.495Z,98708.72
2022-10-17T02:25:14.132Z,98708.13
2022-10-17T02:27:59.569Z,98713.69
2022-10-17T02:30:29.129Z,98721.34
2022-10-17T02:33:21.775Z,98725.25
2022-10-17T02:35:53.955Z,98728.19
2022-10-17T02:38:22.959Z,98720.34
2022-10-17T02:40:51.946Z,98727.34
2022-10-17T02:43:19.999Z,98731.09
2022-10-17T02:45:47.214Z,98730.03
2022-10-17T02:48:42.738Z,98729.66
2022-10-17T02:51:16.038Z,98731.50
2022-10-17T02:54:13.160Z,98729.84
2022-10-17T02:57:08.012Z,98733.59
2022-10-17T02:59:35.814Z,98734.41
2022-10-17T03:02:05.392Z,98726.19
2022-10-17T03:04:32.842Z,98732.38
2022-10-17T03:07:00.046Z,98737.13
2022-10-17T03:09:27.183Z,98731.97
2022-10-17T03:11:54.087Z,98732.78
2022-10-17T03:14:20.872Z,98737.97
2022-10-17T03:16:47.605Z,98737.72
2022-10-17T03:19:14.172Z,98738.78
2022-10-17T03:21:41.377Z,98740.84
2022-10-17T03:24:07.953Z,98742.72
2022-10-17T03:26:34.679Z,98741.88
2022-10-17T03:29:01.435Z,98750.16
2022-10-17T03:31:28.135Z,98746.03
2022-10-17T03:33:54.771Z,98746.03
2022-10-17T03:36:21.957Z,98743.34
2022-10-17T03:38:48.963Z,98736.94
2022-10-17T03:41:15.721Z,98745.63
2022-10-17T03:43:42.566Z,98750.53
2022-10-17T03:46:09.498Z,98746.03
2022-10-17T03:48:36.132Z,98746.84
2022-10-17T03:51:05.974Z,98752.22
2022-10-17T03:53:33.210Z,98755.91
2022-10-17T03:56:20.068Z,98749.31
2022-10-17T03:58:46.941Z,98752.84
2022-10-17T04:01:16.278Z,98756.34
2022-10-17T04:03:44.124Z,98764.63
2022-10-17T04:06:13.457Z,98762.16
2022-10-17T04:08:40.376Z,98762.56
2022-10-17T04:11:08.613Z,98767.94
2022-10-17T04:13:35.783Z,98770.84
2022-10-17T04:16:05.581Z,98766.50
2022-10-17T04:18:33.331Z,98772.91
2022-10-17T04:21:06.887Z,98774.97
2022-10-17T04:23:34.440Z,98773.75
2022-10-17T04:26:01.924Z,98772.13
2022-10-17T04:28:28.791Z,98777.72
2022-10-17T04:30:59.830Z,98773.81
2022-10-17T04:33:26.723Z,98785.78
2022-10-17T04:36:08.542Z,98781.66
2022-10-17T04:38:35.131Z,98786.41
2022-10-17T04:41:04.357Z,98781.06
2022-10-17T04:43:35.454Z,98784.97
2022-10-17T04:46:04.591Z,98786.22
2022-10-17T04:48:31.691Z,98782.50
2022-10-17T04:51:01.051Z,98793.25
2022-10-17T04:53:28.301Z,98793.25
2022-10-17T04:55:55.021Z,98789.94
2022-10-17T04:58:22.275Z,98792.44
2022-10-17T05:00:48.969Z,98800.25
2022-10-17T05:03:15.903Z,98801.72
2022-10-17T05:05:43.199Z,98795.72
2022-10-17T05:08:11.914Z,98798.63
2022-10-17T05:10:44.000Z,98801.91
2022-10-17T05:13:11.217Z,98806.25
2022-10-17T05:15:38.621Z,98807.09
2022-10-17T05:18:06.389Z,98811.63
2022-10-17T05:20:34.073Z,98818.00
2022-10-17T05:23:00.939Z,98809.13
2022-10-17T05:25:27.786Z,98811.00
2022-10-17T05:27:54.684Z,98822.13
2022-10-17T05:30:21.617Z,98824.63
2022-10-17T05:32:48.405Z,98823.59
2022-10-17T05:35:15.316Z,98825.84
2022-10-17T05:37:41.931Z,98833.28
2022-10-17T05:40:09.021Z,98839.03
2022-10-17T05:42:35.802Z,98831.59
2022-10-17T05:45:02.577Z,98834.69
2022-10-17T05:47:29.475Z,98844.19
2022-10-17T05:49:56.309Z,98846.44
2022-10-17T05:52:23.155Z,98847.06
2022-10-17T05:54:49.831Z,98848.09
2022-10-17T05:57:16.538Z,98849.94
2022-10-17T05:59:43.170Z,98861.50
2022-10-17T06:02:13.055Z,98860.84
2022-10-17T06:04:45.573Z,98857.75
2022-10-17T06:07:16.154Z,98867.84
2022-10-17T06:09:43.116Z,98873.63
2022-10-17T06:12:10.066Z,98875.06
2022-10-17T06:14:36.862Z,98876.72
2022-10-17T06:17:03.572Z,98885.41
2022-10-17T06:19:30.332Z,98889.50
2022-10-17T06:21:56.991Z,98890.13
2022-10-17T06:24:24.710Z,98888.66
2022-10-17T06:26:51.637Z,98897.75
2022-10-17T06:29:19.143Z,98900.63
2022-10-17T06:31:47.164Z,98886.78
2022-10-17T06:34:13.816Z,98888.59
2022-10-17T06:36:40.531Z,98899.56
2022-10-17T06:39:09.986Z,98904.91
2022-10-17T06:41:39.700Z,98908.59
2022-10-17T06:44:11.327Z,98912.28
2022-10-17T06:46:40.085Z,98907.91
2022-10-17T06:49:09.919Z,98903.75
2022-10-17T06:51:39.084Z,98917.97
2022-10-17T06:54:09.538Z,98908.00
2022-10-17T06:56:39.180Z,98913.13
2022-10-17T06:59:09.628Z,98912.03
2022-10-17T07:01:41.777Z,98902.28
2022-10-17T07:04:11.518Z,98914.88
2022-10-17T07:06:39.555Z,98909.00
2022-10-17T07:09:09.303Z,98907.69
2022-10-17T07:11:39.244Z,98923.34
2022-10-17T07:14:07.896Z,98922.03
2022-10-17T07:16:35.100Z,98916.16
2022-10-17T07:19:02.226Z,98924.78
2022-10-17T07:21:29.391Z,98916.22
2022-10-17T07:23:56.167Z,98910.28
2022-10-17T07:26:23.084Z,98912.25
2022-10-17T07:28:55.108Z,98907.53
2022-10-17T07:31:23.111Z,98920.66
2022-10-17T07:33:50.204Z,98913.25
2022-10-17T07:36:17.809Z,98916.56
2022-10-17T07:38:44.797Z,98916.41
2022-10-17T07:41:13.729Z,98915.59
2022-10-17T07:43:43.096Z,98915.97
2022-10-17T07:46:11.494Z,98909.59
2022-10-17T07:48:41.267Z,98910.53
2022-10-17T07:51:09.531Z,98912.59
2022-10-17T07:53:42.650Z,98911.06
2022-10-17T07:56:10.981Z,98911.41
2022-10-17T07:58:38.007Z,98914.47
2022-10-17T08:01:10.672Z,98922.22
2022-10-17T08:03:49.645Z,98917.47
2022-10-17T08:06:16.632Z,98921.09
2022-10-17T08:08:44.329Z,98923.88
2022-10-17T08:11:13.453Z,98910.97
2022-10-17T08:13:41.063Z,98911.84
2022-10-17T08:16:09.954Z,98914.69
2022-10-17T08:18:37.418Z,98915.84
2022-10-17T08:21:06.594Z,98913.22
2022-10-17T08:23:33.355Z,98916.72
2022-10-17T08:26:01.408Z,98911.63
2022-10-17T08:28:28.570Z,98905.94
2022-10-17T08:31:06.663Z,98896.41
2022-10-17T08:33:36.428Z,98896.34
2022-10-17T08:36:04.889Z,98908.22
2022-10-17T08:38:35.628Z,98901.41
2022-10-17T08:41:44.484Z,98902.41
2022-10-17T08:44:26.031Z,98905.03
2022-10-17T08:46:59.025Z,98905.75
2022-10-17T08:49:48.001Z,98902.63
2022-10-17T08:52:30.793Z,98893.50
2022-10-17T08:54:57.881Z,98894.97
2022-10-17T08:57:24.452Z,98896.41
2022-10-17T08:59:54.330Z,98899.47
2022-10-17T09:03:14.637Z,98897.06
2022-10-17T09:05:49.916Z,98904.22
2022-10-17T09:08:32.491Z,98904.31
2022-10-17T09:11:09.845Z,98908.16
2022-10-17T09:14:08.313Z,98899.19
2022-10-17T09:16:46.578Z,98903.81
2022-10-17T09:19:39.179Z,98899.72
2022-10-17T09:22:26.666Z,98894.28
2022-10-17T09:24:59.317Z,98898.63
2022-10-17T09:28:09.319Z,98901.63
2022-10-17T09:30:56.177Z,98905.16
2022-10-17T09:33:54.173Z,98910.63
2022-10-17T09:36:27.630Z,98910.06
2022-10-17T09:38:57.196Z,98907.00
2022-10-17T09:41:44.983Z,98901.22
2022-10-17T09:44:23.071Z,98907.47
2022-10-17T09:46:59.712Z,98901.16
2022-10-17T09:49:33.370Z,98906.28
2022-10-17T09:52:02.238Z,98911.16
2022-10-17T09:54:49.566Z,98911.91
2022-10-17T09:57:18.116Z,98911.31
2022-10-17T09:59:57.731Z,98894.38
2022-10-17T10:02:26.103Z,98889.94
2022-10-17T10:05:09.574Z,98898.59
2022-10-17T10:07:39.594Z,98904.78
2022-10-17T10:10:25.427Z,98896.47
2022-10-17T10:13:16.808Z,98891.47
2022-10-17T10:15:47.752Z,98890.88
2022-10-17T10:18:27.008Z,98883.41
2022-10-17T10:21:27.017Z,98884.22
2022-10-17T10:24:12.061Z,98878.16
2022-10-17T10:26:46.181Z,98879.72
2022-10-17T10:29:32.409Z,98875.25
2022-10-17T10:32:07.374Z,98878.44
2022-10-17T10:34:36.175Z,98867.38
2022-10-17T10:37:06.305Z,98871.84
2022-10-17T10:39:53.350Z,98867.28
2022-10-17T10:42:45.962Z,98872.25
2022-10-17T10:45:47.096Z,98872.66
2022-10-17T10:48:12.080Z,98868.44
2022-10-17T10:50:45.368Z,98870.50
2022-10-17T10:53:24.964Z,98871.78
2022-10-17T10:55:57.016Z,98866.16
2022-10-17T11:14:19.001Z,98852.84
2022-10-17T11:17:19.972Z,98839.34
2022-10-17T11:20:15.161Z,98849.53
2022-10-17T11:22:47.168Z,98849.16
2022-10-17T11:25:32.040Z,98846.28
2022-10-17T11:28:04.434Z,98841.41
2022-10-17T11:33:21.860Z,98839.19
2022-10-17T11:35:51.239Z,98837.56
2022-10-17T11:38:39.973Z,98842.41
2022-10-17T11:41:11.502Z,98836.31
2022-10-17T11:43:40.739Z,98840.41
2022-10-17T11:46:16.549Z,98831.84
2022-10-17T11:49:04.238Z,98830.94
2022-10-17T11:52:02.128Z,98834.50
2022-10-17T11:54:40.417Z,98841.13
2022-10-17T11:57:37.392Z,98840.00
2022-10-17T12:00:30.799Z,98827.47
2022-10-17T12:03:13.039Z,98833.06
2022-10-17T12:06:05.083Z,98824.31
2022-10-17T12:08:56.422Z,98827.06
2022-10-17T12:11:25.755Z,98832.06
2022-10-17T12:13:54.774Z,98819.75
2022-10-17T12:16:21.657Z,98820.06
2022-10-17T12:18:52.109Z,98817.53
2022-10-17T12:21:19.174Z,98814.34
2022-10-17T12:23:55.608Z,98809.66
2022-10-17T12:26:30.244Z,98814.34
2022-10-17T12:28:57.721Z,98812.09
2022-10-17T12:31:33.439Z,98810.38
2022-10-17T12:34:02.449Z,98811.06
2022-10-17T12:36:29.278Z,98817.06
2022-10-17T12:39:01.967Z,98812.59
2022-10-17T12:41:40.837Z,98812.06
2022-10-17T12:44:13.584Z,98807.22
2022-10-17T12:46:44.073Z,98801.06
2022-10-17T12:49:40.423Z,98805.34
2022-10-17T12:52:19.487Z,98805.34
2022-10-17T12:55:14.406Z,98799.34
2022-10-17T12:57:44.797Z,98801.19
2022-10-17T13:00:22.210Z,98804.59
2022-10-17T13:02:52.390Z,98797.88
2022-10-17T13:05:38.232Z,98797.69
2022-10-17T13:08:08.172Z,98800.75
2022-10-17T13:10:43.029Z,98791.66
2022-10-17T13:13:33.810Z,98800.63
2022-10-17T13:16:01.000Z,98800.91
2022-10-17T13:18:29.585Z,98795.25
2022-10-17T13:20:57.557Z,98807.75
2022-10-17T13:23:25.938Z,98798.69
2022-10-17T13:26:14.683Z,98802.16
2022-10-17T13:28:42.238Z,98799.81
2022-10-17T13:31:28.246Z,98798.81
2022-10-17T13:33:59.903Z,98797.91
2022-10-17T13:36:28.907Z,98793.34
2022-10-17T13:38:56.243Z,98801.06
2022-10-17T13:41:36.678Z,98795.91
2022-10-17T13:44:08.004Z,98787.47
2022-10-17T13:46:38.343Z,98794.88
2022-10-17T13:49:18.807Z,98795.19
2022-10-17T13:51:51.120Z,98795.63
2022-10-17T13:54:42.869Z,98786.16
2022-10-17T13:57:25.080Z,98794.81
2022-10-17T14:00:00.815Z,98792.81
2022-10-17T14:02:36.687Z,98797.03
2022-10-17T14:05:23.122Z,98795.22
2022-10-17T14:10:43.614Z,98790.31
2022-10-17T14:13:27.917Z,98784.91
2022-10-17T14:15:57.249Z,98786.34
2022-10-17T14:18:36.570Z,98784.81
2022-10-17T14:21:36.931Z,98788.75
2022-10-17T14:24:11.699Z,98782.53
2022-10-17T14:26:51.925Z,98790.66
2022-10-17T14:29:25.167Z,98789.50
2022-10-17T14:32:06.636Z,98798.50
2022-10-17T14:34:36.238Z,98781.97
2022-10-17T14:37:23.354Z,98784.94
2022-10-17T14:39:55.302Z,98788.72
2022-10-17T14:42:24.900Z,98785.09
2022-10-17T14:44:54.894Z,98799.16
2022-10-17T14:47:42.748Z,98790.25
2022-10-17T14:50:16.453Z,98789.06
2022-10-17T14:53:19.275Z,98785.66
2022-10-17T14:56:00.297Z,98783.25
2022-10-17T14:58:35.181Z,98790.28
2022-10-17T15:01:04.744Z,98785.78
2022-10-17T15:03:31.485Z,98785.06
2022-10-17T15:06:09.446Z,98783.56
2022-10-17T15:08:36.959Z,98781.22
2022-10-17T15:11:06.545Z,98781.59
2022-10-17T15:13:42.189Z,98781.94
2022-10-17T15:16:30.560Z,98784.78
2022-10-17T15:18:58.061Z,98787.59
2022-10-17T15:21:38.393Z,98781.72
2022-10-17T15:24:12.704Z,98784.50
2022-10-17T15:26:42.805Z,98785.13
2022-10-17T15:29:18.761Z,98787.94
2022-10-17T15:31:48.709Z,98786.63
2022-10-17T15:34:18.412Z,98786.66
2022-10-17T15:36:51.302Z,98793.00
2022-10-17T15:39:19.675Z,98794.91
2022-10-17T15:41:49.051Z,98791.16
2022-10-17T15:44:18.856Z,98799.91
2022-10-17T15:46:48.735Z,98801.00
2022-10-17T15:49:20.047Z,98795.84
2022-10-17T15:51:54.380Z,98788.22
2022-10-17T15:54:21.979Z,98798.59
2022-10-17T15:56:54.140Z,98789.88
2022-10-17T15:59:32.307Z,98795.63
2022-10-17T16:01:58.999Z,98799.97
2022-10-17T16:04:27.519Z,98805.16
2022-10-17T16:06:54.303Z,98807.31
2022-10-17T16:09:21.246Z,98807.28
2022-10-17T16:11:47.930Z,98809.44
2022-10-17T16:14:18.266Z,98820.81
2022-10-17T16:16:45.164Z,98811.00
2022-10-17T16:19:11.736Z,98820.22
2022-10-17T16:21:40.994Z,98819.34
2022-10-17T16:24:11.258Z,98819.88
2022-10-17T16:26:38.999Z,98823.63
2022-10-17T16:29:05.807Z,98820.56
2022-10-17T16:31:35.210Z,98832.50
2022-10-17T16:34:03.403Z,98833.25
2022-10-17T16:36:30.314Z,98838.91
2022-10-17T16:38:57.213Z,98832.88
2022-10-17T16:41:32.930Z,98834.75
2022-10-17T16:44:02.854Z,98839.81
2022-10-17T16:46:31.137Z,98840.56
2022-10-17T16:48:58.386Z,98836.38
2022-10-17T16:51:25.718Z,98843.13
2022-10-17T16:53:54.650Z,98841.69
2022-10-17T16:56:23.821Z,98841.66
2022-10-17T16:58:51.707Z,98845.38
2022-10-17T17:01:20.882Z,98838.25
2022-10-17T17:03:47.870Z,98846.38
2022-10-17T17:06:17.066Z,98843.53
2022-10-17T17:08:44.037Z,98844.00
2022-10-17T17:11:14.768Z,98853.75
2022-10-17T17:13:42.875Z,98843.88
2022-10-17T17:16:27.529Z,98844.94
2022-10-17T17:19:08.351Z,98853.81
2022-10-17T17:21:35.411Z,98852.13
2022-10-17T17:24:03.570Z,98851.50
2022-10-17T17:26:35.961Z,98855.22
2022-10-17T17:29:03.643Z,98854.06
2022-10-17T17:31:33.791Z,98856.38
2022-10-17T17:34:01.113Z,98851.16
2022-10-17T17:36:32.677Z,98850.25
2022-10-17T17:39:02.700Z,98849.59
2022-10-17T17:41:36.773Z,98854.16
2022-10-17T17:44:04.963Z,98859.47
2022-10-17T17:46:33.709Z,98849.88
2022-10-17T17:49:03.143Z,98858.78
2022-10-17T17:51:31.522Z,98856.81
2022-10-17T17:53:59.670Z,98854.00
2022-10-17T17:56:35.575Z,98859.09
2022-10-17T17:59:02.847Z,98850.66
2022-10-17T18:01:41.667Z,98854.69
2022-10-17T18:04:11.995Z,98853.28
2022-10-17T18:06:40.196Z,98859.47
2022-10-17T18:09:07.978Z,98854.47
2022-10-17T18:11:35.859Z,98854.94
2022-10-17T18:14:06.015Z,98864.63
2022-10-17T18:16:37.670Z,98855.09
2022-10-17T18:19:07.274Z,98858.28
2022-10-17T18:21:34.880Z,98862.56
2022-10-17T18:24:02.041Z,98858.13
2022-10-17T18:26:29.542Z,98856.75
2022-10-17T18:28:56.620Z,98861.56
2022-10-17T18:31:28.435Z,98859.13
2022-10-17T18:33:57.323Z,98857.97
2022-10-17T18:36:26.154Z,98859.75
2022-10-17T18:38:54.363Z,98852.38
2022-10-17T18:41:23.767Z,98860.63
2022-10-17T18:43:52.369Z,98866.19
2022-10-17T18:46:28.562Z,98860.44
2022-10-17T18:48:56.214Z,98861.44
2022-10-17T18:51:24.379Z,98857.53
2022-10-17T18:53:55.349Z,98860.97
2022-10-17T18:56:23.606Z,98864.03
2022-10-17T18:58:52.832Z,98869.34
2022-10-17T19:01:23.011Z,98864.91
2022-10-17T19:03:52.838Z,98865.28
2022-10-17T19:06:23.388Z,98867.31
2022-10-17T19:08:54.085Z,98874.25
2022-10-17T19:11:27.376Z,98873.66
2022-10-17T19:13:58.564Z,98869.78
2022-10-17T19:16:28.540Z,98870.25
2022-10-17T19:18:58.085Z,98869.91
2022-10-17T19:21:25.401Z,98871.22
2022-10-17T19:23:56.301Z,98874.88
2022-10-17T19:26:26.628Z,98866.41
2022-10-17T19:28:55.581Z,98873.09
2022-10-17T19:31:27.270Z,98876.28
2022-10-17T19:33:56.288Z,98874.88
2022-10-17T19:36:30.709Z,98882.03
2022-10-17T19:39:04.724Z,98884.19
2022-10-17T19:41:34.106Z,98883.81
2022-10-17T19:44:01.341Z,98885.94
2022-10-17T19:46:30.117Z,98882.66
2022-10-17T19:48:56.878Z,98896.97
2022-10-17T19:51:24.656Z,98893.09
2022-10-17T19:53:52.955Z,98896.28
2022-10-17T19:56:24.243Z,98897.09
2022-10-17T19:58:51.196Z,98901.31
2022-10-17T20:01:23.024Z,98893.31
2022-10-17T20:03:49.847Z,98897.56
2022-10-17T20:06:17.665Z,98886.41
2022-10-17T20:08:44.298Z,98889.81
2022-10-17T20:11:13.577Z,98886.50
2022-10-17T20:13:41.052Z,98883.44
2022-10-17T20:16:10.925Z,98877.94
2022-10-17T20:18:38.308Z,98887.06
2022-10-17T20:21:10.509Z,98887.31
2022-10-17T20:23:37.576Z,98885.31
2022-10-17T20:26:25.479Z,98887.66
2022-10-17T20:28:55.252Z,98885.41
2022-10-17T20:31:22.461Z,98887.88
2022-10-17T20:33:55.133Z,98879.41
2022-10-17T20:36:23.629Z,98893.16
2022-10-17T20:38:55.567Z,98884.56
2022-10-17T20:41:23.352Z,98883.03
2022-10-17T20:43:51.864Z,98881.59
2022-10-17T20:46:34.986Z,98876.66
2022-10-17T20:49:03.746Z,98869.47
2022-10-17T20:51:30.590Z,98873.22
2022-10-17T20:56:30.439Z,98877.91
2022-10-17T20:58:59.923Z,98879.19
2022-10-17T21:01:27.829Z,98875.09
2022-10-17T21:03:54.768Z,98880.47
2022-10-17T21:06:23.716Z,98878.81
2022-10-17T21:08:52.937Z,98887.13
2022-10-17T21:11:22.251Z,98882.97
2022-10-17T21:13:58.289Z,98881.59
2022-10-17T21:16:25.822Z,98880.41
2022-10-17T21:18:52.830Z,98880.03
2022-10-17T21:21:22.633Z,98880.25
2022-10-17T21:23:50.991Z,98880.69
2022-10-17T21:26:18.857Z,98882.00
2022-10-17T21:28:47.593Z,98868.81
2022-10-17T21:31:26.059Z,98878.78
2022-10-17T21:33:56.404Z,98888.59
2022-10-17T21:36:24.493Z,98888.00
2022-10-17T21:38:54.205Z,98885.75
2022-10-17T21:41:23.357Z,98880.59
2022-10-17T21:43:58.937Z,98876.69
2022-10-17T21:46:25.868Z,98876.34
2022-10-17T21:48:53.051Z,98882.78
2022-10-17T21:51:23.073Z,98882.16
2022-10-17T21:53:51.131Z,98880.97
2022-10-17T21:56:20.815Z,98875.81
2022-10-17T21:58:48.215Z,98874.41
2022-10-17T22:01:20.911Z,98872.97
2022-10-17T22:03:50.124Z,98865.56
2022-10-17T22:06:39.137Z,98861.66
2022-10-17T22:09:24.749Z,98863.75
2022-10-17T22:11:56.893Z,98865.41
2022-10-17T22:14:27.290Z,98862.34
2022-10-17T22:16:54.510Z,98871.69
2022-10-17T22:19:26.726Z,98864.66
2022-10-17T22:21:54.287Z,98861.13
2022-10-17T22:26:53.553Z,98856.66
2022-10-17T22:29:20.453Z,98856.88
2022-10-17T22:31:47.228Z,98866.44
2022-10-17T22:34:15.342Z,98861.97
2022-10-17T22:36:42.685Z,98865.91
2022-10-17T22:39:09.582Z,98867.19
2022-10-17T22:41:36.634Z,98865.75
2022-10-17T22:44:03.705Z,98866.59
2022-10-17T22:46:30.407Z,98867.63
2022-10-17T22:48:57.073Z,98872.03
2022-10-17T22:53:50.411Z,98873.28
2022-10-17T22:56:20.208Z,98878.09
2022-10-17T22:58:47.664Z,98869.41
2022-10-17T23:01:17.205Z,98870.88
2022-10-17T23:03:44.805Z,98870.75
2022-10-17T23:06:12.289Z,98866.00
2022-10-17T23:08:39.408Z,98856.34
2022-10-17T23:11:07.519Z,98863.81
2022-10-17T23:13:34.513Z,98851.84
2022-10-17T23:16:01.148Z,98856.38
2022-10-17T23:18:27.946Z,98852.28
2022-10-17T23:20:55.105Z,98857.44
2022-10-17T23:23:22.272Z,98855.81
2022-10-17T23:25:49.565Z,98854.38
2022-10-17T23:28:17.046Z,98854.38
2022-10-17T23:30:44.168Z,98855.41
2022-10-17T23:33:13.060Z,98848.22
2022-10-17T23:35:40.589Z,98856.66
2022-10-17T23:38:07.389Z,98853.59
2022-10-17T23:40:35.412Z,98850.09
2022-10-17T23:43:02.828Z,98837.06
2022-10-17T23:45:33.403Z,98838.34
2022-10-17T23:48:02.857Z,98837.97
2022-10-17T23:50:29.668Z,98840.84
2022-10-17T23:52:56.243Z,98823.75
2022-10-17T23:55:22.884Z,98832.81
2022-10-17T23:57:49.724Z,98831.84
